Time;durP1;ratioP1;P1;durP2;ratioP2;P2;SDS_P1;SDS_P2;PMS_P1;PMS_P2;Temp;Humidity;BMP_temperature;BMP_pressure;BME280_temperature;BME280_humidity;BME280_pressure;Samples;Min_cycle;Max_cycle;Signal;HPM_P1;HPM_P2
2022/08/13 00:00:00;;;;;;;2.40;0.80;;;;;;;;;;520056;28;1295;-90
2022/08/13 00:00:21;;;;;;;3.50;0.80;;;;;;;;;;520151;28;1152;-88
2022/08/13 00:00:38;;;;;;;3.42;0.90;;;;;;;;;;520216;28;1354;-90
2022/08/13 00:00:59;;;;;;;2.15;0.82;;;;;;;;;;524276;28;1282;-90
2022/08/13 00:01:16;;;;;;;3.38;0.85;;;;;;;;;;524465;28;1508;-91
2022/08/13 00:01:37;;;;;;;4.55;0.90;;;;;;;;;;524381;28;1386;-91
2022/08/13 00:01:53;;;;;;;2.00;0.85;;;;;;;;;;524315;28;1196;-90
2022/08/13 00:02:10;;;;;;;2.60;0.90;;;;;;;;;;522199;28;1442;-91
2022/08/13 00:02:28;;;;;;;2.38;0.80;;;;;;;;;;526384;28;1261;-91
2022/08/13 00:02:44;;;;;;;1.92;0.80;;;;;;;;;;524476;28;1238;-90
2022/08/13 00:03:01;;;;;;;2.65;0.82;;;;;;;;;;524405;28;1352;-91
2022/08/13 00:03:19;;;;;;;1.98;0.80;;;;;;;;;;528627;28;1393;-90
2022/08/13 00:03:35;;;;;;;1.35;0.90;;;;;;;;;;528589;28;1387;-89
2022/08/13 00:03:55;;;;;;;1.33;0.80;;;;;;;;;;526580;28;1412;-90
2022/08/13 00:04:14;;;;;;;1.85;0.77;;;;;;;;;;522452;28;1333;-91
2022/08/13 00:04:30;;;;;;;2.00;0.90;;;;;;;;;;524301;28;1463;-90
2022/08/13 00:04:59;;;;;;;2.63;1.00;;;;;;;;;;522397;28;1409;-90
2022/08/13 00:05:15;;;;;;;1.60;0.70;;;;;;;;;;520377;28;1294;-91
2022/08/13 00:05:31;;;;;;;1.30;0.80;;;;;;;;;;520242;28;1208;-90
2022/08/13 00:05:46;;;;;;;1.17;0.80;;;;;;;;;;518351;28;1370;-88
2022/08/13 00:06:08;;;;;;;0.90;0.80;;;;;;;;;;520231;28;1350;-90
2022/08/13 00:07:04;;;;;;;1.70;0.85;;;;;;;;;;520373;28;1540;-90
2022/08/13 00:07:08;;;;;;;2.53;0.80;;;;;;;;;;520628;28;1168;-90
2022/08/13 00:07:24;;;;;;;4.07;0.77;;;;;;;;;;523315;28;1388;-90
2022/08/13 00:07:39;;;;;;;2.70;0.75;;;;;;;;;;523179;28;1399;-91
2022/08/13 00:07:55;;;;;;;1.40;0.70;;;;;;;;;;524455;28;1125;-90
2022/08/13 00:08:10;;;;;;;1.60;0.70;;;;;;;;;;524531;28;1163;-90
2022/08/13 00:08:26;;;;;;;3.22;0.80;;;;;;;;;;524202;28;1241;-91
2022/08/13 00:08:41;;;;;;;3.20;0.90;;;;;;;;;;522371;28;1172;-90
2022/08/13 00:08:57;;;;;;;1.70;0.90;;;;;;;;;;522243;28;1245;-90
2022/08/13 00:09:14;;;;;;;2.70;0.90;;;;;;;;;;520318;28;1323;-90
2022/08/13 00:09:30;;;;;;;3.13;0.80;;;;;;;;;;522205;28;1365;-89
2022/08/13 00:09:45;;;;;;;2.45;0.80;;;;;;;;;;522281;28;1160;-89
2022/08/13 00:10:01;;;;;;;2.87;0.80;;;;;;;;;;524379;28;1286;-90
2022/08/13 00:10:40;;;;;;;2.72;0.80;;;;;;;;;;524387;28;788;-90
2022/08/13 00:10:55;;;;;;;2.30;0.88;;;;;;;;;;526080;28;923;-90
2022/08/13 00:12:56;;;;;;;2.60;0.80;;;;;;;;;;526338;28;1588;-90
2022/08/13 00:12:58;;;;;;;1.40;0.70;;;;;;;;;;530508;27;1220;-90
2022/08/13 00:13:13;;;;;;;1.05;0.70;;;;;;;;;;530749;27;1289;-90
2022/08/13 00:13:28;;;;;;;1.50;0.80;;;;;;;;;;528320;28;1278;-89
2022/08/13 00:13:46;;;;;;;1.40;0.90;;;;;;;;;;526464;28;1336;-90
2022/08/13 00:14:04;;;;;;;2.35;0.90;;;;;;;;;;524413;28;1405;-90
2022/08/13 00:14:23;;;;;;;3.45;0.90;;;;;;;;;;524421;28;1297;-90
2022/08/13 00:14:40;;;;;;;2.15;0.80;;;;;;;;;;522034;28;1410;-90
2022/08/13 00:14:56;;;;;;;1.63;0.70;;;;;;;;;;520232;28;1420;-91
2022/08/13 00:15:27;;;;;;;1.63;0.73;;;;;;;;;;522529;28;1285;-90
2022/08/13 00:15:47;;;;;;;1.83;0.90;;;;;;;;;;522319;28;1371;-90
2022/08/13 00:16:04;;;;;;;1.20;0.70;;;;;;;;;;522270;28;1322;-90
2022/08/13 00:16:19;;;;;;;0.98;0.80;;;;;;;;;;522237;28;1401;-90
2022/08/13 00:16:37;;;;;;;2.30;0.90;;;;;;;;;;522196;28;1349;-90
2022/08/13 00:16:54;;;;;;;2.80;0.90;;;;;;;;;;522435;28;1224;-91
2022/08/13 00:17:14;;;;;;;1.50;0.80;;;;;;;;;;520385;28;1252;-91
2022/08/13 00:17:33;;;;;;;3.72;0.80;;;;;;;;;;520175;28;1501;-90
2022/08/13 00:17:49;;;;;;;2.63;0.70;;;;;;;;;;520346;28;1244;-89
2022/08/13 00:18:10;;;;;;;2.90;0.80;;;;;;;;;;520272;28;1358;-90
2022/08/13 00:18:29;;;;;;;2.08;0.80;;;;;;;;;;521115;28;844;-91
2022/08/13 00:18:44;;;;;;;1.50;0.80;;;;;;;;;;520975;28;1322;-90
2022/08/13 00:19:00;;;;;;;1.98;0.80;;;;;;;;;;520907;28;1234;-91
2022/08/13 00:19:15;;;;;;;2.93;0.80;;;;;;;;;;522469;28;1200;-90
2022/08/13 00:19:30;;;;;;;2.25;0.77;;;;;;;;;;522180;28;1304;-90
2022/08/13 00:19:50;;;;;;;2.20;0.80;;;;;;;;;;522398;28;1247;-91
2022/08/13 00:20:07;;;;;;;2.90;0.80;;;;;;;;;;522262;28;1402;-90
2022/08/13 00:20:27;;;;;;;2.22;0.70;;;;;;;;;;524413;28;1491;-91
2022/08/13 00:20:48;;;;;;;1.30;0.75;;;;;;;;;;526585;28;1312;-91
2022/08/13 00:21:04;;;;;;;2.97;0.80;;;;;;;;;;526544;28;982;-91
2022/08/13 00:21:21;;;;;;;3.45;0.80;;;;;;;;;;524687;28;1209;-90
2022/08/13 00:21:36;;;;;;;3.08;0.85;;;;;;;;;;524247;28;1392;-91
2022/08/13 00:21:53;;;;;;;2.30;0.90;;;;;;;;;;524426;28;1058;-90
2022/08/13 00:22:10;;;;;;;3.13;0.90;;;;;;;;;;522118;28;1275;-91
2022/08/13 00:22:26;;;;;;;2.40;0.90;;;;;;;;;;522307;28;1306;-90
2022/08/13 00:22:42;;;;;;;2.67;1.00;;;;;;;;;;522323;28;1364;-90
2022/08/13 00:22:58;;;;;;;2.57;0.83;;;;;;;;;;524305;28;1206;-91
2022/08/13 00:23:15;;;;;;;1.65;0.80;;;;;;;;;;522354;28;1169;-90
2022/08/13 00:23:30;;;;;;;1.33;0.80;;;;;;;;;;522315;28;1180;-90
2022/08/13 00:23:49;;;;;;;1.60;0.90;;;;;;;;;;522311;28;1237;-90
2022/08/13 00:24:05;;;;;;;1.83;0.80;;;;;;;;;;522299;28;1274;-91
2022/08/13 00:24:21;;;;;;;1.70;0.80;;;;;;;;;;522361;28;1456;-90
2022/08/13 00:24:38;;;;;;;4.10;0.80;;;;;;;;;;522392;28;1211;-90
2022/08/13 00:24:55;;;;;;;5.70;0.90;;;;;;;;;;524292;28;1555;-90
2022/08/13 00:25:11;;;;;;;2.67;0.82;;;;;;;;;;524345;28;1350;-91
2022/08/13 00:25:28;;;;;;;1.65;0.80;;;;;;;;;;522330;28;1303;-90
2022/08/13 00:25:46;;;;;;;2.08;0.88;;;;;;;;;;524475;28;1251;-91
2022/08/13 00:26:03;;;;;;;1.85;1.00;;;;;;;;;;522175;28;1276;-90
2022/08/13 00:26:19;;;;;;;3.88;1.20;;;;;;;;;;522185;28;1238;-91
2022/08/13 00:26:34;;;;;;;4.93;1.20;;;;;;;;;;524389;28;1355;-90
2022/08/13 00:26:50;;;;;;;3.60;0.90;;;;;;;;;;522176;28;1388;-90
2022/08/13 00:27:06;;;;;;;2.83;0.85;;;;;;;;;;522519;28;1215;-90
2022/08/13 00:27:22;;;;;;;2.05;0.80;;;;;;;;;;522459;28;1259;-90
2022/08/13 00:27:38;;;;;;;2.10;0.90;;;;;;;;;;522320;28;1322;-90
2022/08/13 00:27:57;;;;;;;1.92;0.80;;;;;;;;;;522217;28;1203;-90
2022/08/13 00:28:18;;;;;;;2.17;0.73;;;;;;;;;;522593;28;1315;-91
2022/08/13 00:28:35;;;;;;;1.73;0.77;;;;;;;;;;522204;28;1586;-91
2022/08/13 00:28:54;;;;;;;2.13;0.82;;;;;;;;;;524172;28;1303;-90
2022/08/13 00:29:10;;;;;;;3.95;0.75;;;;;;;;;;524204;28;1378;-91
2022/08/13 00:29:27;;;;;;;3.90;0.80;;;;;;;;;;524251;28;1314;-90
2022/08/13 00:29:43;;;;;;;1.70;0.70;;;;;;;;;;522162;28;1362;-92
2022/08/13 00:29:58;;;;;;;2.25;0.70;;;;;;;;;;524388;28;1297;-91
2022/08/13 00:30:16;;;;;;;2.20;0.80;;;;;;;;;;520282;28;902;-90
2022/08/13 00:30:34;;;;;;;1.98;0.80;;;;;;;;;;520201;28;1270;-91
2022/08/13 00:30:50;;;;;;;2.92;0.90;;;;;;;;;;520364;28;1341;-90
2022/08/13 00:31:05;;;;;;;1.55;0.80;;;;;;;;;;522246;28;1329;-91
2022/08/13 00:31:22;;;;;;;1.17;0.70;;;;;;;;;;526522;28;1191;-90
2022/08/13 00:31:37;;;;;;;1.95;0.80;;;;;;;;;;526387;28;1438;-91
2022/08/13 00:31:54;;;;;;;2.10;0.80;;;;;;;;;;524523;28;1341;-91
2022/08/13 00:32:10;;;;;;;2.00;0.73;;;;;;;;;;524460;28;1407;-91
2022/08/13 00:32:30;;;;;;;2.40;0.80;;;;;;;;;;524335;28;1395;-91
2022/08/13 00:32:46;;;;;;;2.67;0.80;;;;;;;;;;526484;28;1273;-91
2022/08/13 00:33:04;;;;;;;2.67;0.77;;;;;;;;;;526375;28;1463;-91
2022/08/13 00:33:23;;;;;;;1.92;0.70;;;;;;;;;;524422;28;1468;-90
2022/08/13 00:33:38;;;;;;;1.83;0.88;;;;;;;;;;524353;28;1401;-90
2022/08/13 00:33:55;;;;;;;4.05;0.90;;;;;;;;;;524199;28;1977;-91
2022/08/13 00:34:10;;;;;;;4.10;0.90;;;;;;;;;;520170;28;1365;-90
2022/08/13 00:34:27;;;;;;;2.10;0.80;;;;;;;;;;520130;28;1209;-90
2022/08/13 00:34:43;;;;;;;1.67;0.65;;;;;;;;;;522345;28;1439;-91
2022/08/13 00:35:01;;;;;;;3.28;0.77;;;;;;;;;;522276;28;1266;-91
2022/08/13 00:35:18;;;;;;;3.80;0.88;;;;;;;;;;522433;28;1092;-89
2022/08/13 00:35:36;;;;;;;2.38;0.80;;;;;;;;;;524323;28;1354;-90
2022/08/13 00:35:53;;;;;;;2.08;0.80;;;;;;;;;;522294;28;1284;-91
2022/08/13 00:36:09;;;;;;;2.65;0.90;;;;;;;;;;522288;28;1282;-90
2022/08/13 00:36:25;;;;;;;3.30;0.90;;;;;;;;;;522263;28;1273;-90
2022/08/13 00:36:40;;;;;;;2.45;0.77;;;;;;;;;;520228;28;1208;-91
2022/08/13 00:36:56;;;;;;;1.43;0.70;;;;;;;;;;522337;28;1263;-90
2022/08/13 00:37:11;;;;;;;2.10;0.70;;;;;;;;;;522379;28;1252;-91
2022/08/13 00:37:28;;;;;;;2.40;0.85;;;;;;;;;;522288;28;1231;-90
2022/08/13 00:37:43;;;;;;;2.63;1.00;;;;;;;;;;522308;28;1212;-90
2022/08/13 00:37:59;;;;;;;1.97;0.90;;;;;;;;;;524367;28;1295;-91
2022/08/13 00:38:17;;;;;;;1.75;0.80;;;;;;;;;;522335;28;1284;-91
2022/08/13 00:38:33;;;;;;;2.70;0.90;;;;;;;;;;522676;28;1433;-91
2022/08/13 00:38:52;;;;;;;2.03;0.70;;;;;;;;;;522331;28;1319;-90
2022/08/13 00:39:09;;;;;;;2.53;0.90;;;;;;;;;;520174;28;1326;-90
2022/08/13 00:39:24;;;;;;;3.17;0.88;;;;;;;;;;522095;28;1302;-91
2022/08/13 00:39:40;;;;;;;3.93;0.80;;;;;;;;;;522176;28;1211;-90
2022/08/13 00:39:55;;;;;;;3.42;0.80;;;;;;;;;;524337;28;1180;-90
2022/08/13 00:40:11;;;;;;;2.90;0.80;;;;;;;;;;522194;28;1223;-91
2022/08/13 00:40:29;;;;;;;2.50;0.80;;;;;;;;;;522291;28;1208;-91
2022/08/13 00:40:50;;;;;;;1.20;0.73;;;;;;;;;;522339;28;1439;-90
2022/08/13 00:41:07;;;;;;;2.05;0.70;;;;;;;;;;522541;28;1272;-91
2022/08/13 00:41:38;;;;;;;2.05;0.70;;;;;;;;;;524263;28;1247;-91
2022/08/13 00:41:53;;;;;;;1.77;0.80;;;;;;;;;;526333;28;1332;-90
2022/08/13 00:42:09;;;;;;;2.30;0.80;;;;;;;;;;526589;28;1242;-90
2022/08/13 00:42:27;;;;;;;1.55;0.73;;;;;;;;;;526635;28;1242;-91
2022/08/13 00:42:42;;;;;;;2.30;0.80;;;;;;;;;;524274;28;1326;-90
2022/08/13 00:43:02;;;;;;;3.97;0.90;;;;;;;;;;526468;28;1350;-91
2022/08/13 00:43:18;;;;;;;2.85;0.80;;;;;;;;;;524456;28;1241;-90
2022/08/13 00:43:33;;;;;;;2.60;0.80;;;;;;;;;;522276;28;1310;-90
2022/08/13 00:43:49;;;;;;;3.37;0.87;;;;;;;;;;524686;28;1300;-91
2022/08/13 00:44:10;;;;;;;2.10;0.90;;;;;;;;;;522386;28;1209;-91
2022/08/13 00:44:31;;;;;;;1.67;0.93;;;;;;;;;;522167;28;1324;-91
2022/08/13 00:44:47;;;;;;;1.10;0.90;;;;;;;;;;517996;28;1432;-90
2022/08/13 00:45:03;;;;;;;2.55;0.73;;;;;;;;;;520330;28;1160;-91
2022/08/13 00:45:19;;;;;;;2.83;0.77;;;;;;;;;;522128;28;1164;-90
2022/08/13 00:45:34;;;;;;;2.13;0.80;;;;;;;;;;524254;28;1332;-91
2022/08/13 00:45:50;;;;;;;2.63;0.83;;;;;;;;;;524356;28;1187;-91
2022/08/13 00:46:05;;;;;;;2.63;0.80;;;;;;;;;;526534;28;1080;-91
2022/08/13 00:46:21;;;;;;;3.33;0.83;;;;;;;;;;526416;28;1246;-91
2022/08/13 00:46:38;;;;;;;3.33;0.90;;;;;;;;;;524205;28;1256;-90
2022/08/13 00:48:41;;;;;;;1.63;0.73;;;;;;;;;;522016;28;1275;-91
2022/08/13 00:48:46;;;;;;;2.50;0.80;;;;;;;;;;528488;28;760;-90
2022/08/13 00:49:03;;;;;;;1.45;0.73;;;;;;;;;;528342;28;1325;-91
2022/08/13 00:49:19;;;;;;;2.00;0.90;;;;;;;;;;526169;28;1317;-91
2022/08/13 00:49:34;;;;;;;1.33;0.83;;;;;;;;;;524094;28;1313;-90
2022/08/13 00:49:50;;;;;;;0.87;0.70;;;;;;;;;;524021;28;1286;-90
2022/08/13 00:50:06;;;;;;;1.85;0.77;;;;;;;;;;524111;28;1467;-91
2022/08/13 00:50:22;;;;;;;3.27;0.80;;;;;;;;;;524166;28;1377;-91
2022/08/13 00:50:37;;;;;;;3.08;0.80;;;;;;;;;;526267;28;1227;-91
2022/08/13 00:50:56;;;;;;;2.83;0.90;;;;;;;;;;526308;28;1405;-91
2022/08/13 00:51:13;;;;;;;2.53;0.90;;;;;;;;;;524180;28;1476;-91
2022/08/13 00:51:31;;;;;;;1.58;0.80;;;;;;;;;;524216;28;1463;-91
2022/08/13 00:51:47;;;;;;;1.80;0.80;;;;;;;;;;521901;28;1365;-90
2022/08/13 00:52:04;;;;;;;1.25;0.70;;;;;;;;;;524217;28;1203;-91
2022/08/13 00:52:19;;;;;;;1.35;0.82;;;;;;;;;;522224;28;1404;-91
2022/08/13 00:52:39;;;;;;;2.90;0.90;;;;;;;;;;524200;28;1328;-91
2022/08/13 00:52:54;;;;;;;1.70;0.90;;;;;;;;;;524498;28;970;-90
2022/08/13 00:53:17;;;;;;;1.73;0.87;;;;;;;;;;524167;28;1322;-90
2022/08/13 00:53:34;;;;;;;1.65;0.90;;;;;;;;;;524141;28;1485;-90
2022/08/13 00:53:49;;;;;;;2.30;0.88;;;;;;;;;;523579;28;1977;-89
2022/08/13 00:54:07;;;;;;;2.90;0.80;;;;;;;;;;522453;28;998;-91
2022/08/13 00:54:24;;;;;;;3.27;0.80;;;;;;;;;;522077;28;1405;-91
2022/08/13 00:54:42;;;;;;;1.60;0.80;;;;;;;;;;520087;28;1338;-91
2022/08/13 00:55:03;;;;;;;2.05;0.80;;;;;;;;;;520278;28;1410;-91
2022/08/13 00:55:20;;;;;;;1.52;0.90;;;;;;;;;;520150;28;1239;-90
2022/08/13 00:55:36;;;;;;;1.67;0.80;;;;;;;;;;520274;28;1345;-89
2022/08/13 00:55:55;;;;;;;2.63;0.80;;;;;;;;;;522377;28;852;-91
2022/08/13 00:56:12;;;;;;;2.70;0.80;;;;;;;;;;522593;28;1400;-91
2022/08/13 00:56:35;;;;;;;1.70;0.90;;;;;;;;;;522501;28;1341;-90
2022/08/13 00:56:52;;;;;;;1.85;0.80;;;;;;;;;;523171;28;1286;-90
2022/08/13 00:57:10;;;;;;;2.50;0.88;;;;;;;;;;522270;28;1155;-90
2022/08/13 00:57:28;;;;;;;2.67;0.80;;;;;;;;;;520096;28;1353;-90
2022/08/13 00:57:45;;;;;;;1.90;0.80;;;;;;;;;;518177;28;1239;-91
2022/08/13 00:58:01;;;;;;;1.20;0.88;;;;;;;;;;518221;28;1284;-91
2022/08/13 00:58:21;;;;;;;1.60;0.90;;;;;;;;;;522303;28;1270;-91
2022/08/13 00:58:37;;;;;;;2.47;0.80;;;;;;;;;;522160;28;1333;-91
2022/08/13 00:58:53;;;;;;;3.03;0.80;;;;;;;;;;524303;28;1357;-90
2022/08/13 00:59:13;;;;;;;2.17;0.80;;;;;;;;;;524391;28;855;-90
2022/08/13 00:59:29;;;;;;;1.48;0.80;;;;;;;;;;526397;28;1368;-90
2022/08/13 00:59:45;;;;;;;1.55;0.80;;;;;;;;;;524231;28;1448;-90
2022/08/13 01:00:11;;;;;;;1.80;0.70;;;;;;;;;;526284;28;890;-90
2022/08/13 01:00:27;;;;;;;3.30;0.70;;;;;;;;;;524442;28;1350;-91
2022/08/13 01:00:48;;;;;;;1.58;0.70;;;;;;;;;;526304;28;1407;-90
2022/08/13 01:01:05;;;;;;;3.08;0.90;;;;;;;;;;524248;28;1349;-90
2022/08/13 01:01:26;;;;;;;3.95;1.02;;;;;;;;;;522978;28;1434;-91
2022/08/13 01:01:44;;;;;;;3.28;1.00;;;;;;;;;;524502;28;1423;-89
2022/08/13 01:02:04;;;;;;;2.35;0.82;;;;;;;;;;522239;28;1358;-90
2022/08/13 01:02:22;;;;;;;3.13;0.82;;;;;;;;;;523053;28;1440;-91
2022/08/13 01:02:40;;;;;;;3.22;0.90;;;;;;;;;;526275;28;1440;-90
2022/08/13 01:02:57;;;;;;;3.13;0.80;;;;;;;;;;524193;28;1309;-90
2022/08/13 01:03:13;;;;;;;2.75;0.80;;;;;;;;;;524973;28;1364;-90
2022/08/13 01:03:31;;;;;;;2.38;0.80;;;;;;;;;;524426;28;1269;-90
2022/08/13 01:03:47;;;;;;;2.30;0.77;;;;;;;;;;524368;28;1362;-91
2022/08/13 01:04:03;;;;;;;1.83;0.80;;;;;;;;;;524432;28;1070;-91
2022/08/13 01:04:21;;;;;;;2.13;0.80;;;;;;;;;;524362;28;1242;-90
2022/08/13 01:04:36;;;;;;;2.67;0.85;;;;;;;;;;522223;28;1364;-90
2022/08/13 01:04:53;;;;;;;3.67;0.98;;;;;;;;;;522249;28;1315;-91
2022/08/13 01:05:09;;;;;;;1.98;1.00;;;;;;;;;;523822;28;1029;-91
2022/08/13 01:05:25;;;;;;;1.40;0.70;;;;;;;;;;525717;28;883;-91
2022/08/13 01:05:43;;;;;;;2.50;0.80;;;;;;;;;;525997;28;1282;-91
2022/08/13 01:05:59;;;;;;;3.10;0.90;;;;;;;;;;524310;28;1305;-90
2022/08/13 01:06:15;;;;;;;3.58;0.88;;;;;;;;;;522141;28;1562;-90
2022/08/13 01:06:32;;;;;;;2.50;0.80;;;;;;;;;;521152;28;1208;-91
2022/08/13 01:06:49;;;;;;;1.15;0.80;;;;;;;;;;523567;28;1304;-90
2022/08/13 01:07:04;;;;;;;1.77;0.80;;;;;;;;;;521950;28;1243;-90
2022/08/13 01:07:22;;;;;;;2.00;0.80;;;;;;;;;;524210;28;1238;-91
2022/08/13 01:07:43;;;;;;;1.80;0.70;;;;;;;;;;522019;28;1440;-91
2022/08/13 01:07:59;;;;;;;2.10;0.82;;;;;;;;;;522257;28;1260;-91
2022/08/13 01:08:18;;;;;;;1.45;0.80;;;;;;;;;;524670;28;1287;-90
2022/08/13 01:08:40;;;;;;;2.45;0.80;;;;;;;;;;524320;28;1440;-90
2022/08/13 01:08:55;;;;;;;2.63;0.80;;;;;;;;;;522278;28;1334;-90
2022/08/13 01:09:12;;;;;;;2.33;0.70;;;;;;;;;;524453;28;1208;-91
2022/08/13 01:09:31;;;;;;;2.63;0.75;;;;;;;;;;526389;28;1324;-91
2022/08/13 01:09:47;;;;;;;2.05;0.82;;;;;;;;;;524556;28;1310;-90
2022/08/13 01:10:04;;;;;;;1.73;0.85;;;;;;;;;;524348;28;1314;-91
2022/08/13 01:10:20;;;;;;;1.20;0.80;;;;;;;;;;522139;28;1218;-91
2022/08/13 01:10:40;;;;;;;1.83;0.82;;;;;;;;;;522304;28;1502;-90
2022/08/13 01:10:59;;;;;;;1.38;0.80;;;;;;;;;;520581;28;1562;-90
2022/08/13 01:11:14;;;;;;;1.80;0.90;;;;;;;;;;522373;28;1266;-90
2022/08/13 01:11:34;;;;;;;2.22;0.98;;;;;;;;;;522081;28;1255;-90
2022/08/13 01:11:49;;;;;;;1.30;0.85;;;;;;;;;;522043;28;1371;-91
2022/08/13 01:12:09;;;;;;;3.00;0.88;;;;;;;;;;524281;28;1361;-91
2022/08/13 01:12:27;;;;;;;3.45;0.77;;;;;;;;;;522296;28;1357;-91
2022/08/13 01:12:45;;;;;;;2.83;0.80;;;;;;;;;;524056;28;1260;-91
2022/08/13 01:13:01;;;;;;;2.03;0.90;;;;;;;;;;524174;28;1370;-91
2022/08/13 01:13:19;;;;;;;2.65;0.90;;;;;;;;;;526248;28;1326;-91
2022/08/13 01:13:37;;;;;;;2.90;0.85;;;;;;;;;;526594;28;1427;-91
2022/08/13 01:13:52;;;;;;;2.72;0.85;;;;;;;;;;526348;28;1925;-90
2022/08/13 01:14:08;;;;;;;2.88;0.90;;;;;;;;;;524106;28;1526;-91
2022/08/13 01:14:27;;;;;;;2.67;0.80;;;;;;;;;;522408;28;1266;-91
2022/08/13 01:14:46;;;;;;;2.13;0.70;;;;;;;;;;522133;28;1339;-90
2022/08/13 01:15:02;;;;;;;2.72;0.80;;;;;;;;;;524386;28;1264;-91
2022/08/13 01:15:18;;;;;;;2.45;0.80;;;;;;;;;;524236;28;1432;-91
2022/08/13 01:15:35;;;;;;;2.30;0.73;;;;;;;;;;522260;28;1396;-91
2022/08/13 01:15:52;;;;;;;2.22;0.80;;;;;;;;;;522193;28;1283;-90
2022/08/13 01:16:16;;;;;;;1.85;0.85;;;;;;;;;;522878;28;868;-91
2022/08/13 01:16:36;;;;;;;1.88;0.80;;;;;;;;;;520248;28;1361;-91
2022/08/13 01:16:52;;;;;;;2.88;0.80;;;;;;;;;;520685;28;1450;-90
2022/08/13 01:17:11;;;;;;;3.42;0.80;;;;;;;;;;522197;28;1383;-90
2022/08/13 01:17:28;;;;;;;3.80;0.80;;;;;;;;;;523130;28;926;-89
2022/08/13 01:17:47;;;;;;;2.63;0.88;;;;;;;;;;523121;28;1255;-90
2022/08/13 01:18:03;;;;;;;1.30;0.90;;;;;;;;;;522132;28;1379;-90
2022/08/13 01:18:23;;;;;;;1.33;0.90;;;;;;;;;;522487;28;1269;-90
2022/08/13 01:18:42;;;;;;;2.33;0.90;;;;;;;;;;524419;28;1218;-91
2022/08/13 01:18:59;;;;;;;2.28;0.90;;;;;;;;;;522997;28;1353;-90
2022/08/13 01:19:15;;;;;;;1.23;0.80;;;;;;;;;;524400;28;1363;-89
2022/08/13 01:19:33;;;;;;;1.50;0.80;;;;;;;;;;526485;28;1312;-91
2022/08/13 01:19:50;;;;;;;1.23;0.80;;;;;;;;;;524286;28;1389;-90
2022/08/13 01:20:09;;;;;;;1.08;0.90;;;;;;;;;;522136;28;1143;-91
2022/08/13 01:20:27;;;;;;;1.60;0.80;;;;;;;;;;524265;28;1285;-90
2022/08/13 01:20:48;;;;;;;2.20;0.80;;;;;;;;;;524576;28;1267;-91
2022/08/13 01:21:13;;;;;;;1.15;0.75;;;;;;;;;;522142;28;1351;-91
2022/08/13 01:21:42;;;;;;;2.00;0.90;;;;;;;;;;524766;28;1496;-90
2022/08/13 01:21:59;;;;;;;1.60;0.90;;;;;;;;;;525277;28;1053;-90
2022/08/13 01:22:15;;;;;;;1.65;1.00;;;;;;;;;;524349;28;1349;-91
2022/08/13 01:22:33;;;;;;;1.40;1.05;;;;;;;;;;522543;28;1388;-91
2022/08/13 01:22:52;;;;;;;1.40;0.80;;;;;;;;;;524157;28;1215;-90
2022/08/13 01:23:09;;;;;;;2.38;0.90;;;;;;;;;;522571;28;1242;-92
2022/08/13 01:23:25;;;;;;;3.25;1.00;;;;;;;;;;523548;28;1280;-92
2022/08/13 01:23:46;;;;;;;2.50;1.00;;;;;;;;;;522364;28;1213;-90
2022/08/13 01:24:02;;;;;;;1.30;0.88;;;;;;;;;;522803;28;1355;-91
2022/08/13 01:24:20;;;;;;;3.17;0.80;;;;;;;;;;522315;28;1404;-91
2022/08/13 01:24:35;;;;;;;3.72;0.80;;;;;;;;;;520326;28;1355;-90
2022/08/13 01:24:51;;;;;;;3.90;0.90;;;;;;;;;;522256;28;1454;-91
2022/08/13 01:25:08;;;;;;;3.35;0.88;;;;;;;;;;522341;28;864;-90
2022/08/13 01:25:24;;;;;;;1.30;0.80;;;;;;;;;;522375;28;1152;-91
2022/08/13 01:25:39;;;;;;;1.48;0.88;;;;;;;;;;524375;28;1266;-90
2022/08/13 01:25:56;;;;;;;1.80;0.90;;;;;;;;;;522258;28;1144;-91
2022/08/13 01:26:17;;;;;;;1.42;0.80;;;;;;;;;;524190;28;1492;-91
2022/08/13 01:26:34;;;;;;;1.65;0.88;;;;;;;;;;526314;28;1507;-90
2022/08/13 01:26:49;;;;;;;2.13;0.80;;;;;;;;;;522774;28;1284;-91
2022/08/13 01:27:08;;;;;;;2.30;0.80;;;;;;;;;;522313;28;1349;-90
2022/08/13 01:27:26;;;;;;;2.33;1.00;;;;;;;;;;522103;28;1294;-90
2022/08/13 01:27:41;;;;;;;2.22;1.00;;;;;;;;;;522138;28;1368;-90
2022/08/13 01:27:57;;;;;;;1.50;0.90;;;;;;;;;;522229;28;1310;-89
2022/08/13 01:28:13;;;;;;;2.35;0.90;;;;;;;;;;522404;28;1373;-90
2022/08/13 01:28:28;;;;;;;2.23;0.90;;;;;;;;;;524263;28;1178;-91
2022/08/13 01:28:46;;;;;;;1.98;0.80;;;;;;;;;;524262;28;1209;-90
2022/08/13 01:29:04;;;;;;;2.55;0.90;;;;;;;;;;524338;28;1321;-91
2022/08/13 01:29:20;;;;;;;2.13;0.90;;;;;;;;;;526817;28;1471;-91
2022/08/13 01:29:37;;;;;;;1.70;0.90;;;;;;;;;;524369;28;1213;-91
2022/08/13 01:29:52;;;;;;;1.65;0.90;;;;;;;;;;526251;28;1460;-91
2022/08/13 01:30:09;;;;;;;1.60;0.90;;;;;;;;;;524201;28;1388;-91
2022/08/13 01:30:25;;;;;;;1.08;0.88;;;;;;;;;;521850;28;1373;-90
2022/08/13 01:30:45;;;;;;;0.97;0.80;;;;;;;;;;522187;28;1195;-91
2022/08/13 01:31:05;;;;;;;1.80;0.77;;;;;;;;;;524185;28;1298;-91
2022/08/13 01:31:21;;;;;;;1.92;0.80;;;;;;;;;;524223;28;1324;-90
2022/08/13 01:31:40;;;;;;;2.25;0.80;;;;;;;;;;524371;28;1275;-91
2022/08/13 01:31:56;;;;;;;1.20;0.90;;;;;;;;;;522687;28;1345;-90
2022/08/13 01:32:15;;;;;;;1.33;0.90;;;;;;;;;;522414;28;1111;-91
2022/08/13 01:32:31;;;;;;;1.60;1.00;;;;;;;;;;522312;28;1266;-91
2022/08/13 01:32:46;;;;;;;2.08;1.02;;;;;;;;;;520276;28;1184;-91
2022/08/13 01:33:02;;;;;;;3.38;1.00;;;;;;;;;;520172;28;1190;-91
2022/08/13 01:33:18;;;;;;;2.63;0.98;;;;;;;;;;522229;28;1329;-91
2022/08/13 01:33:35;;;;;;;2.08;0.93;;;;;;;;;;520126;28;1254;-91
2022/08/13 01:33:59;;;;;;;1.70;0.90;;;;;;;;;;519978;28;1969;-91
2022/08/13 01:34:15;;;;;;;1.23;0.80;;;;;;;;;;522228;28;1330;-91
2022/08/13 01:34:33;;;;;;;2.20;0.80;;;;;;;;;;522657;28;1394;-91
2022/08/13 01:34:50;;;;;;;3.05;0.90;;;;;;;;;;524372;28;1435;-91
2022/08/13 01:35:06;;;;;;;3.17;0.90;;;;;;;;;;524318;28;1406;-91
2022/08/13 01:35:23;;;;;;;2.00;0.90;;;;;;;;;;522249;28;1224;-91
2022/08/13 01:35:38;;;;;;;1.35;0.88;;;;;;;;;;522172;28;1223;-91
2022/08/13 01:35:58;;;;;;;1.70;0.90;;;;;;;;;;524416;28;1179;-91
2022/08/13 01:36:15;;;;;;;2.60;1.00;;;;;;;;;;524417;28;1289;-91
2022/08/13 01:36:31;;;;;;;2.55;0.98;;;;;;;;;;522243;28;1397;-90
2022/08/13 01:36:47;;;;;;;2.35;0.95;;;;;;;;;;522018;28;1384;-91
2022/08/13 01:37:02;;;;;;;1.88;0.90;;;;;;;;;;524186;28;1293;-92
2022/08/13 01:37:19;;;;;;;4.80;0.80;;;;;;;;;;526867;28;1258;-91
2022/08/13 01:37:37;;;;;;;2.95;0.80;;;;;;;;;;526328;28;1275;-91
2022/08/13 01:37:54;;;;;;;1.85;1.00;;;;;;;;;;526481;28;1403;-91
2022/08/13 01:38:10;;;;;;;3.10;1.00;;;;;;;;;;524264;28;1336;-91
2022/08/13 01:38:26;;;;;;;2.67;0.90;;;;;;;;;;524314;28;1377;-91
2022/08/13 01:38:42;;;;;;;1.45;0.80;;;;;;;;;;524360;28;1175;-91
2022/08/13 01:39:01;;;;;;;1.83;0.80;;;;;;;;;;526223;28;1198;-90
2022/08/13 01:39:16;;;;;;;1.60;0.90;;;;;;;;;;526319;28;1160;-91
2022/08/13 01:39:32;;;;;;;1.23;0.90;;;;;;;;;;528547;28;1075;-92
2022/08/13 01:39:48;;;;;;;1.75;0.90;;;;;;;;;;526826;28;1339;-91
2022/08/13 01:40:06;;;;;;;2.33;0.90;;;;;;;;;;526277;28;1561;-90
2022/08/13 01:40:22;;;;;;;2.38;0.93;;;;;;;;;;526460;28;1484;-91
2022/08/13 01:40:38;;;;;;;1.73;0.80;;;;;;;;;;528708;28;1230;-91
2022/08/13 01:40:55;;;;;;;1.30;0.85;;;;;;;;;;528278;28;1375;-91
2022/08/13 01:41:10;;;;;;;1.50;1.00;;;;;;;;;;528731;28;851;-91
2022/08/13 01:41:26;;;;;;;1.50;0.90;;;;;;;;;;528544;28;1321;-91
2022/08/13 01:41:41;;;;;;;2.10;0.80;;;;;;;;;;530575;27;1220;-91
2022/08/13 01:41:57;;;;;;;1.67;0.90;;;;;;;;;;530360;27;1143;-92
2022/08/13 01:42:22;;;;;;;2.05;0.95;;;;;;;;;;526385;28;1360;-91
2022/08/13 01:42:44;;;;;;;2.22;1.00;;;;;;;;;;524659;28;1380;-91
2022/08/13 01:43:01;;;;;;;1.25;0.80;;;;;;;;;;522131;28;1486;-91
2022/08/13 01:43:17;;;;;;;1.10;0.70;;;;;;;;;;522165;28;1212;-91
2022/08/13 01:43:35;;;;;;;1.13;0.80;;;;;;;;;;522012;28;1272;-91
2022/08/13 01:43:51;;;;;;;2.20;0.90;;;;;;;;;;522272;28;1326;-91
2022/08/13 01:44:06;;;;;;;2.50;0.90;;;;;;;;;;522148;28;1202;-91
2022/08/13 01:44:24;;;;;;;1.77;0.90;;;;;;;;;;522205;28;1092;-91
2022/08/13 01:44:39;;;;;;;1.07;0.97;;;;;;;;;;522304;28;1424;-92
2022/08/13 01:44:55;;;;;;;1.30;0.90;;;;;;;;;;522162;28;1254;-91
2022/08/13 01:45:12;;;;;;;1.58;0.90;;;;;;;;;;522865;28;1390;-91
2022/08/13 01:45:29;;;;;;;2.03;0.80;;;;;;;;;;522302;28;1443;-91
2022/08/13 01:45:45;;;;;;;1.65;0.90;;;;;;;;;;522295;28;1384;-90
2022/08/13 01:46:01;;;;;;;1.40;0.90;;;;;;;;;;522125;28;1287;-91
2022/08/13 01:46:17;;;;;;;1.55;0.80;;;;;;;;;;522096;28;1407;-90
2022/08/13 01:50:31;;;;;;;3.03;0.85;;;;;;;;;;530834;27;720;-91
2022/08/13 01:50:47;;;;;;;1.63;0.85;;;;;;;;;;530589;27;1232;-91
2022/08/13 01:51:03;;;;;;;2.00;0.97;;;;;;;;;;530544;27;1221;-91
2022/08/13 01:51:21;;;;;;;2.53;0.98;;;;;;;;;;530482;27;1450;-91
2022/08/13 01:51:38;;;;;;;1.65;0.90;;;;;;;;;;530715;27;1315;-91
2022/08/13 01:51:53;;;;;;;1.17;0.80;;;;;;;;;;530591;27;1236;-91
2022/08/13 01:52:10;;;;;;;1.30;0.80;;;;;;;;;;528354;28;1192;-91
2022/08/13 01:52:25;;;;;;;1.20;0.80;;;;;;;;;;526291;28;1445;-91
2022/08/13 01:52:41;;;;;;;1.33;0.80;;;;;;;;;;526470;28;875;-91
2022/08/13 01:53:04;;;;;;;1.95;0.90;;;;;;;;;;526434;28;1278;-91
2022/08/13 01:53:19;;;;;;;1.60;0.93;;;;;;;;;;524244;28;1339;-91
2022/08/13 01:53:35;;;;;;;1.00;0.90;;;;;;;;;;524369;28;1170;-91
2022/08/13 01:53:54;;;;;;;1.27;0.90;;;;;;;;;;526155;28;1926;-91
2022/08/13 01:54:11;;;;;;;1.50;0.90;;;;;;;;;;526498;28;1311;-92
2022/08/13 01:54:27;;;;;;;1.42;0.90;;;;;;;;;;524386;28;1361;-91
2022/08/13 01:54:44;;;;;;;2.40;0.80;;;;;;;;;;526311;28;1242;-91